TimePST,TemperatureF,Dew PointF,Humidity,Sea Level PressureIn,VisibilityMPH,Wind Direction,Wind SpeedMPH,Gust SpeedMPH,PrecipitationIn,Events,Conditions,WindDirDegrees,DateUTC
12:53 AM,39.9,37.0,89,30.18,10.0,Calm,Calm,-,N/A,,Clear,0,2013-02-16 08:53:00
1:53 AM,39.0,36.0,89,30.17,8.0,SE,6.9,-,N/A,,Clear,140,2013-02-16 09:53:00
2:53 AM,41.0,37.9,89,30.17,8.0,SSE,9.2,-,N/A,,Mostly Cloudy,160,2013-02-16 10:53:00
3:53 AM,43.0,39.0,86,30.16,10.0,SE,10.4,-,N/A,,Overcast,140,2013-02-16 11:53:00
4:53 AM,45.0,41.0,86,30.16,10.0,SE,9.2,-,N/A,,Overcast,130,2013-02-16 12:53:00
5:53 AM,46.0,41.0,83,30.16,10.0,SSE,5.8,-,N/A,,Overcast,150,2013-02-16 13:53:00
6:53 AM,46.0,41.0,83,30.16,10.0,ESE,3.5,-,N/A,,Overcast,110,2013-02-16 14:53:00
7:53 AM,48.0,41.0,77,30.17,10.0,SSE,8.1,-,N/A,,Overcast,150,2013-02-16 15:53:00
8:53 AM,48.9,41.0,74,30.17,10.0,South,11.5,17.3,N/A,,Overcast,190,2013-02-16 16:53:00
9:53 AM,48.9,42.1,77,30.17,10.0,Variable,6.9,17.3,N/A,,Mostly Cloudy,0,2013-02-16 17:53:00
10:53 AM,50.0,41.0,71,30.17,10.0,SSW,9.2,17.3,N/A,,Overcast,210,2013-02-16 18:53:00
11:53 AM,53.1,39.9,61,30.16,10.0,South,10.4,-,N/A,,Mostly Cloudy,180,2013-02-16 19:53:00
12:53 PM,53.1,37.0,55,30.14,10.0,SSW,13.8,25.3,N/A,,Scattered Clouds,200,2013-02-16 20:53:00
1:53 PM,54.0,37.9,55,30.13,10.0,SSW,13.8,18.4,N/A,,Scattered Clouds,200,2013-02-16 21:53:00
2:53 PM,54.0,36.0,51,30.12,10.0,SSW,11.5,21.9,N/A,,Scattered Clouds,200,2013-02-16 22:53:00
3:53 PM,48.9,39.9,71,30.13,10.0,Calm,Calm,-,N/A,,Overcast,0,2013-02-16 23:53:00
4:45 PM,48.2,39.2,71,30.14,10.0,NNE,9.2,-,0.00,,Overcast,30,2013-02-17 00:45:00
4:53 PM,48.9,39.0,69,30.14,10.0,ENE,9.2,-,0.00,,Mostly Cloudy,60,2013-02-17 00:53:00
5:53 PM,46.9,37.9,71,30.15,10.0,East,9.2,-,N/A,,Overcast,100,2013-02-17 01:53:00
6:53 PM,46.9,37.0,68,30.16,10.0,South,8.1,-,N/A,,Overcast,190,2013-02-17 02:53:00
7:53 PM,46.0,37.0,71,30.16,10.0,SE,6.9,-,N/A,,Overcast,130,2013-02-17 03:53:00
8:53 PM,45.0,37.0,74,30.18,10.0,South,8.1,-,0.00,Rain,Light Rain,190,2013-02-17 04:53:00
9:53 PM,45.0,37.0,74,30.18,10.0,SSE,5.8,-,0.00,,Overcast,150,2013-02-17 05:53:00
10:53 PM,44.1,36.0,73,30.19,10.0,SSE,5.8,-,N/A,,Overcast,150,2013-02-17 06:53:00
11:53 PM,44.1,35.1,71,30.21,10.0,SSE,6.9,-,N/A,,Scattered Clouds,160,2013-02-17 07:53:00